createdAt,value
2022-11-20T00:04:28.133Z,16.13
2022-11-20T00:09:31.050Z,16.05
2022-11-20T00:14:34.445Z,14.52
2022-11-20T00:19:37.999Z,17.45
2022-11-20T00:24:43.193Z,12.27
2022-11-20T00:29:46.352Z,15.27
2022-11-20T00:34:49.379Z,17.75
2022-11-20T00:39:52.335Z,10.98
2022-11-20T00:44:55.213Z,13.80
2022-11-20T00:49:58.228Z,20.23
2022-11-20T00:55:01.084Z,17.00
2022-11-20T01:00:04.299Z,18.30
2022-11-20T01:05:07.434Z,17.25
2022-11-20T01:10:10.494Z,16.48
2022-11-20T01:15:13.297Z,21.55
2022-11-20T01:20:16.272Z,20.00
2022-11-20T01:25:19.123Z,18.77
2022-11-20T01:30:22.024Z,18.48
2022-11-20T01:35:24.916Z,19.20
2022-11-20T01:40:27.794Z,12.45
2022-11-20T01:45:49.529Z,16.70
2022-11-20T01:50:54.755Z,12.43
2022-11-20T01:55:59.360Z,13.98
2022-11-20T02:01:02.509Z,11.88
2022-11-20T02:06:25.768Z,13.70
2022-11-20T02:11:28.790Z,10.45
2022-11-20T02:16:35.211Z,15.05
2022-11-20T02:21:38.478Z,13.07
2022-11-20T02:27:04.731Z,14.85
2022-11-20T02:32:07.739Z,17.50
2022-11-20T02:37:10.593Z,10.77
2022-11-20T02:42:13.582Z,12.95
2022-11-20T02:47:16.456Z,10.43
2022-11-20T02:52:19.347Z,11.57
2022-11-20T02:57:22.265Z,11.88
2022-11-20T03:02:25.620Z,16.75
2022-11-20T03:07:28.547Z,16.80
2022-11-20T03:12:31.482Z,19.75
2022-11-20T03:17:34.293Z,14.07
2022-11-20T03:22:37.517Z,17.38
2022-11-20T03:27:40.373Z,16.83
2022-11-20T03:32:43.565Z,22.73
2022-11-20T03:37:47.876Z,19.35
2022-11-20T03:42:51.018Z,13.25
2022-11-20T03:47:54.046Z,19.08
2022-11-20T03:52:57.253Z,11.18
2022-11-20T03:58:01.116Z,18.83
2022-11-20T04:03:04.627Z,14.40
2022-11-20T04:08:07.510Z,14.98
2022-11-20T04:13:10.309Z,13.20
2022-11-20T04:18:13.519Z,15.20
2022-11-20T04:23:16.447Z,9.68
2022-11-20T04:28:19.878Z,8.90
2022-11-20T04:33:22.770Z,13.90
2022-11-20T04:38:26.035Z,14.68
2022-11-20T04:43:29.411Z,13.85
2022-11-20T04:48:32.216Z,10.57
2022-11-20T04:53:35.241Z,11.45
2022-11-20T04:58:38.328Z,31.13
2022-11-20T05:03:42.731Z,12.68
2022-11-20T05:08:48.320Z,9.32
2022-11-20T05:13:52.147Z,20.85
2022-11-20T05:18:55.657Z,27.08
2022-11-20T05:23:58.577Z,11.02
2022-11-20T05:29:01.624Z,10.13
2022-11-20T05:34:04.520Z,20.05
2022-11-20T05:39:07.425Z,11.40
2022-11-20T05:44:12.544Z,10.88
2022-11-20T05:49:15.401Z,10.70
2022-11-20T05:54:18.310Z,14.43
2022-11-20T05:59:21.364Z,12.43
2022-11-20T06:04:24.553Z,13.25
2022-11-20T06:09:28.479Z,27.75
2022-11-20T06:14:31.504Z,7.07
2022-11-20T06:19:34.748Z,13.02
2022-11-20T06:24:37.698Z,12.88
2022-11-20T06:29:40.762Z,12.25
2022-11-20T06:34:43.862Z,17.90
2022-11-20T06:40:05.400Z,8.88
2022-11-20T06:45:08.794Z,13.32
2022-11-20T06:50:11.702Z,9.45
2022-11-20T06:55:14.595Z,15.38
2022-11-20T07:00:18.700Z,15.65
2022-11-20T07:05:23.199Z,14.25
2022-11-20T07:10:27.684Z,12.40
2022-11-20T07:15:31.014Z,10.63
2022-11-20T07:20:33.893Z,13.18
2022-11-20T07:25:36.881Z,10.25
2022-11-20T07:30:39.648Z,24.17
2022-11-20T07:35:42.512Z,19.70
2022-11-20T07:40:46.283Z,21.73
2022-11-20T07:45:49.289Z,25.10
2022-11-20T07:50:57.164Z,27.73
2022-11-20T07:56:02.121Z,23.58
2022-11-20T08:01:05.985Z,37.28
2022-11-20T08:06:09.842Z,24.10
2022-11-20T08:11:31.237Z,29.00
2022-11-20T08:16:34.103Z,26.48
2022-11-20T08:21:38.483Z,37.42
2022-11-20T08:26:42.251Z,30.58
2022-11-20T08:31:46.736Z,47.40
2022-11-20T08:41:52.579Z,50.03
2022-11-20T08:46:55.469Z,59.25
2022-11-20T08:51:58.898Z,80.63
2022-11-20T08:57:03.096Z,83.53
2022-11-20T09:02:06.495Z,117.63
2022-11-20T09:07:09.550Z,118.00
2022-11-20T09:12:12.603Z,114.15
2022-11-20T09:17:15.950Z,151.35
2022-11-20T09:22:18.846Z,135.98
2022-11-20T09:27:22.522Z,176.15
2022-11-20T09:32:25.504Z,171.10
2022-11-20T09:37:28.830Z,185.30
2022-11-20T09:42:36.333Z,195.38
2022-11-20T09:47:39.230Z,168.32
2022-11-20T09:52:48.266Z,203.45
2022-11-20T09:57:53.101Z,196.10
2022-11-20T10:02:59.210Z,208.93
2022-11-20T10:08:21.499Z,265.58
2022-11-20T10:13:29.372Z,221.75
2022-11-20T10:18:35.302Z,230.63
2022-11-20T10:23:59.610Z,232.07
2022-11-20T10:29:08.944Z,244.38
2022-11-20T10:34:22.966Z,239.63
2022-11-20T10:40:04.858Z,270.60
2022-11-20T10:45:18.350Z,255.45
2022-11-20T10:50:22.985Z,272.67
2022-11-20T10:55:32.516Z,289.67
2022-11-20T11:00:35.464Z,286.13
2022-11-20T11:05:44.912Z,283.15
2022-11-20T11:10:59.143Z,306.85
2022-11-20T11:16:02.096Z,275.10
2022-11-20T11:21:06.805Z,266.45
2022-11-20T11:26:23.567Z,233.65
2022-11-20T11:31:28.184Z,278.55
2022-11-20T11:36:31.628Z,299.07
2022-11-20T11:41:38.701Z,304.50
2022-11-20T11:46:46.035Z,295.45
2022-11-20T11:52:04.301Z,290.45
2022-11-20T11:57:12.228Z,301.23
2022-11-20T12:02:28.406Z,243.95
2022-11-20T12:07:46.233Z,275.88
2022-11-20T12:13:03.800Z,277.65
2022-11-20T12:18:16.435Z,261.10
2022-11-20T12:23:46.146Z,248.85
2022-11-20T12:28:50.290Z,256.60
2022-11-20T12:33:53.562Z,228.10
2022-11-20T12:38:59.607Z,226.07
2022-11-20T12:44:48.323Z,244.35
2022-11-20T12:49:58.578Z,139.88
2022-11-20T12:55:01.715Z,234.25
2022-11-20T13:00:19.694Z,202.73
2022-11-20T13:05:26.449Z,202.10
2022-11-20T13:10:48.083Z,219.10
2022-11-20T13:16:01.579Z,190.57
2022-11-20T13:21:25.120Z,200.30
2022-11-20T13:26:47.801Z,169.33
2022-11-20T13:31:51.303Z,155.88
2022-11-20T13:36:58.449Z,105.88
2022-11-20T13:42:06.078Z,157.38
2022-11-20T13:47:25.539Z,160.52
2022-11-20T13:52:47.499Z,111.32
2022-11-20T13:58:06.378Z,136.90
2022-11-20T14:03:14.148Z,163.73
2022-11-20T14:08:23.333Z,174.15
2022-11-20T14:13:26.536Z,157.50
2022-11-20T14:18:29.471Z,157.05
2022-11-20T14:23:33.761Z,167.77
2022-11-20T14:28:36.853Z,161.17
2022-11-20T14:33:41.307Z,170.40
2022-11-20T14:38:44.366Z,170.13
2022-11-20T14:43:49.882Z,167.30
2022-11-20T14:48:54.550Z,168.13
2022-11-20T14:59:26.750Z,167.68
2022-11-20T15:04:30.207Z,168.82
2022-11-20T15:09:33.611Z,148.75
2022-11-20T15:14:38.320Z,157.27
2022-11-20T15:19:41.418Z,146.65
2022-11-20T15:24:44.765Z,143.73
2022-11-20T15:29:47.771Z,110.00
2022-11-20T15:34:51.180Z,163.63
2022-11-20T15:39:54.528Z,167.45
2022-11-20T15:44:57.523Z,135.32
2022-11-20T15:50:01.658Z,165.43
2022-11-20T15:55:09.693Z,140.50
2022-11-20T16:00:19.282Z,144.55
2022-11-20T16:05:29.290Z,129.25
2022-11-20T16:15:57.384Z,177.32
2022-11-20T16:21:00.313Z,126.50
2022-11-20T16:26:10.952Z,206.80
2022-11-20T16:31:14.965Z,170.57
2022-11-20T16:36:18.181Z,196.63
2022-11-20T16:41:21.433Z,209.80
2022-11-20T16:46:43.159Z,199.60
2022-11-20T16:51:46.268Z,215.88
2022-11-20T16:56:51.070Z,249.68
2022-11-20T17:01:54.134Z,228.13
2022-11-20T17:06:57.090Z,226.45
2022-11-20T17:12:00.052Z,246.50
2022-11-20T17:17:04.486Z,257.52
2022-11-20T17:22:08.039Z,217.63
2022-11-20T17:27:11.195Z,212.73
2022-11-20T17:32:14.302Z,233.45
2022-11-20T17:37:17.598Z,211.25
2022-11-20T17:42:30.027Z,236.88
2022-11-20T17:47:32.989Z,203.18
2022-11-20T17:52:36.995Z,227.33
2022-11-20T17:57:57.292Z,233.80
2022-11-20T18:03:00.187Z,223.40
2022-11-20T18:08:04.860Z,274.00
2022-11-20T18:13:08.610Z,106.07
2022-11-20T18:18:12.133Z,245.50
2022-11-20T18:23:15.062Z,172.45
2022-11-20T18:28:19.988Z,263.90
2022-11-20T18:33:28.295Z,220.32
2022-11-20T18:38:31.485Z,225.38
2022-11-20T18:43:53.901Z,250.30
2022-11-20T18:48:56.819Z,187.10
2022-11-20T18:53:59.733Z,210.20
2022-11-20T18:59:04.018Z,195.13
2022-11-20T19:04:10.519Z,199.40
2022-11-20T19:09:14.239Z,186.23
2022-11-20T19:14:17.112Z,180.75
2022-11-20T19:19:20.077Z,174.95
2022-11-20T19:24:24.706Z,156.65
2022-11-20T19:29:28.762Z,167.38
2022-11-20T19:34:31.927Z,162.43
2022-11-20T19:39:36.250Z,181.02
2022-11-20T19:44:39.141Z,175.38
2022-11-20T19:49:42.134Z,173.13
2022-11-20T19:54:45.034Z,168.00
2022-11-20T19:59:48.206Z,175.68
2022-11-20T20:04:51.963Z,171.50
2022-11-20T20:09:54.898Z,144.00
2022-11-20T20:14:59.295Z,168.68
2022-11-20T20:20:02.441Z,169.77
2022-11-20T20:25:05.497Z,168.60
2022-11-20T20:30:11.907Z,162.20
2022-11-20T20:35:14.726Z,173.13
2022-11-20T20:40:19.023Z,142.13
2022-11-20T20:45:22.182Z,153.85
2022-11-20T20:50:25.224Z,149.45
2022-11-20T20:55:28.086Z,145.10
2022-11-20T21:00:30.989Z,150.30
2022-11-20T21:05:33.813Z,149.27
2022-11-20T21:10:37.839Z,167.57
2022-11-20T21:15:41.147Z,148.00
2022-11-20T21:21:03.114Z,136.98
2022-11-20T21:26:08.510Z,126.30
2022-11-20T21:31:12.772Z,136.88
2022-11-20T21:36:16.811Z,136.65
2022-11-20T21:41:19.878Z,140.30
2022-11-20T21:46:23.221Z,116.18
2022-11-20T21:51:27.997Z,93.72
2022-11-20T21:56:30.876Z,110.10
2022-11-20T22:01:37.124Z,114.30
2022-11-20T22:06:40.060Z,118.25
2022-11-20T22:11:42.998Z,84.60
2022-11-20T22:17:04.297Z,69.70
2022-11-20T22:22:07.530Z,109.22
2022-11-20T22:27:11.170Z,84.55
2022-11-20T22:32:14.140Z,76.82
2022-11-20T22:37:17.251Z,80.90
2022-11-20T22:42:20.132Z,64.35
2022-11-20T22:47:22.970Z,84.43
2022-11-20T22:52:25.873Z,72.80
2022-11-20T22:57:28.776Z,76.72
2022-11-20T23:02:32.029Z,93.72
2022-11-20T23:07:39.680Z,80.18
2022-11-20T23:12:43.713Z,79.97
2022-11-20T23:17:46.650Z,85.50
2022-11-20T23:22:50.917Z,68.05
2022-11-20T23:27:54.608Z,55.03
2022-11-20T23:32:58.781Z,65.43
2022-11-20T23:38:01.845Z,59.08
2022-11-20T23:43:17.888Z,57.43
2022-11-20T23:48:21.929Z,68.90
2022-11-20T23:53:25.152Z,73.13
2022-11-20T23:58:31.604Z,66.53
